createdAt,value
2023-12-04T00:01:18.601Z,46.76
2023-12-04T00:03:45.903Z,48.10
2023-12-04T00:06:13.437Z,47.99
2023-12-04T00:08:40.604Z,46.78
2023-12-04T00:11:08.070Z,45.81
2023-12-04T00:13:35.852Z,46.40
2023-12-04T00:16:02.990Z,45.79
2023-12-04T00:18:30.182Z,43.88
2023-12-04T00:20:57.657Z,45.88
2023-12-04T00:23:24.506Z,46.79
2023-12-04T00:25:51.210Z,47.67
2023-12-04T00:28:18.007Z,46.82
2023-12-04T00:30:45.966Z,46.10
2023-12-04T00:33:12.824Z,46.50
2023-12-04T00:35:39.599Z,46.52
2023-12-04T00:38:06.370Z,46.65
2023-12-04T00:40:34.450Z,48.49
2023-12-04T00:43:01.297Z,49.65
2023-12-04T00:45:28.181Z,48.34
2023-12-04T00:47:55.048Z,46.11
2023-12-04T00:50:21.996Z,45.27
2023-12-04T00:52:49.112Z,46.60
2023-12-04T00:55:15.896Z,46.95
2023-12-04T00:57:42.712Z,43.42
2023-12-04T01:00:10.170Z,45.55
2023-12-04T01:02:36.921Z,44.95
2023-12-04T01:05:03.921Z,48.17
2023-12-04T01:07:30.739Z,45.55
2023-12-04T01:09:57.532Z,46.36
2023-12-04T01:12:24.396Z,47.31
2023-12-04T01:14:51.226Z,45.68
2023-12-04T01:17:18.020Z,46.36
2023-12-04T01:19:44.780Z,48.04
2023-12-04T01:22:11.549Z,45.34
2023-12-04T01:24:38.400Z,44.35
2023-12-04T01:27:05.483Z,45.21
2023-12-04T01:29:33.189Z,47.15
2023-12-04T01:31:59.965Z,45.39
2023-12-04T01:34:26.918Z,44.74
2023-12-04T01:36:53.841Z,47.89
2023-12-04T01:39:20.684Z,45.99
2023-12-04T01:41:47.461Z,46.17
2023-12-04T01:44:14.283Z,43.84
2023-12-04T01:46:41.617Z,45.15
2023-12-04T01:49:09.040Z,46.57
2023-12-04T01:51:36.700Z,44.56
2023-12-04T01:54:05.684Z,45.77
2023-12-04T01:56:33.706Z,45.61
2023-12-04T01:59:01.134Z,45.17
2023-12-04T02:01:28.579Z,46.08
2023-12-04T02:03:57.338Z,44.74
2023-12-04T02:06:24.225Z,45.42
2023-12-04T02:08:50.960Z,45.04
2023-12-04T02:11:17.844Z,44.11
2023-12-04T02:13:44.789Z,44.10
2023-12-04T02:16:15.985Z,44.31
2023-12-04T02:18:44.455Z,43.85
2023-12-04T02:21:11.317Z,45.43
2023-12-04T02:23:38.124Z,44.59
2023-12-04T02:26:11.873Z,44.43
2023-12-04T02:28:39.566Z,43.88
2023-12-04T02:31:08.216Z,44.58
2023-12-04T02:33:37.023Z,45.95
2023-12-04T02:36:06.551Z,45.89
2023-12-04T02:38:33.779Z,44.33
2023-12-04T02:41:00.783Z,45.96
2023-12-04T02:43:27.563Z,45.60
2023-12-04T02:45:54.478Z,46.10
2023-12-04T02:48:21.477Z,45.43
2023-12-04T02:50:48.272Z,44.46
2023-12-04T02:53:15.064Z,43.83
2023-12-04T02:55:41.846Z,45.21
2023-12-04T02:58:08.624Z,45.69
2023-12-04T03:00:35.520Z,45.50
2023-12-04T03:03:02.355Z,45.44
2023-12-04T03:05:29.122Z,44.35
2023-12-04T03:07:55.877Z,43.95
2023-12-04T03:10:22.687Z,43.84
2023-12-04T03:12:49.506Z,43.18
2023-12-04T03:15:16.471Z,44.45
2023-12-04T03:17:43.268Z,46.81
2023-12-04T03:20:10.752Z,43.83
2023-12-04T03:22:38.294Z,43.03
2023-12-04T03:25:05.709Z,43.23
2023-12-04T03:27:32.517Z,44.38
2023-12-04T03:29:59.352Z,43.93
2023-12-04T03:32:26.174Z,42.09
2023-12-04T03:34:52.961Z,43.32
2023-12-04T03:37:19.710Z,45.25
2023-12-04T03:39:46.544Z,46.27
2023-12-04T03:42:13.416Z,46.41
2023-12-04T03:44:40.180Z,44.06
2023-12-04T03:47:06.979Z,42.90
2023-12-04T03:49:33.806Z,45.52
2023-12-04T03:52:00.727Z,45.12
2023-12-04T03:54:27.483Z,44.77
2023-12-04T03:56:54.551Z,43.73
2023-12-04T03:59:21.490Z,42.74
2023-12-04T04:01:48.277Z,42.71
2023-12-04T04:04:15.178Z,43.71
2023-12-04T04:06:42.019Z,43.38
2023-12-04T04:09:08.892Z,44.46
2023-12-04T04:11:36.627Z,45.19
2023-12-04T04:14:03.348Z,42.68
2023-12-04T04:16:30.106Z,44.48
2023-12-04T04:18:57.322Z,46.76
2023-12-04T04:21:24.164Z,45.06
2023-12-04T04:23:50.966Z,42.53
2023-12-04T04:26:17.666Z,44.41
2023-12-04T04:28:44.498Z,45.96
2023-12-04T04:31:11.355Z,46.38
2023-12-04T04:33:38.279Z,44.25
2023-12-04T04:36:05.733Z,42.88
2023-12-04T04:38:32.459Z,43.55
2023-12-04T04:40:59.260Z,45.53
2023-12-04T04:43:26.098Z,45.54
2023-12-04T04:45:52.910Z,44.00
2023-12-04T04:48:21.070Z,41.80
2023-12-04T04:50:47.821Z,43.73
2023-12-04T04:53:14.634Z,43.91
2023-12-04T04:55:47.700Z,42.55
2023-12-04T04:58:17.300Z,41.91
2023-12-04T05:00:45.143Z,42.72
2023-12-04T05:03:11.915Z,44.75
2023-12-04T05:05:38.692Z,45.84
2023-12-04T05:08:05.774Z,43.66
2023-12-04T05:10:32.694Z,43.96
2023-12-04T05:12:59.951Z,43.51
2023-12-04T05:15:26.765Z,42.96
2023-12-04T05:17:54.843Z,42.76
2023-12-04T05:20:21.647Z,45.52
2023-12-04T05:22:50.057Z,46.17
2023-12-04T05:25:16.906Z,48.94
2023-12-04T05:27:43.730Z,47.67
2023-12-04T05:30:10.853Z,44.22
2023-12-04T05:32:37.650Z,43.02
2023-12-04T05:35:04.762Z,44.15
2023-12-04T05:37:31.512Z,44.50
2023-12-04T05:39:58.295Z,42.91
2023-12-04T05:42:25.028Z,44.25
2023-12-04T05:44:56.459Z,44.93
2023-12-04T05:47:23.432Z,43.74
2023-12-04T05:49:50.232Z,43.33
2023-12-04T05:52:17.190Z,42.84
2023-12-04T05:54:44.181Z,42.47
2023-12-04T05:57:10.910Z,43.01
2023-12-04T05:59:37.748Z,43.56
2023-12-04T06:02:04.721Z,42.54
2023-12-04T06:04:31.549Z,42.71
2023-12-04T06:06:58.364Z,43.17
2023-12-04T06:09:25.168Z,42.08
2023-12-04T06:11:51.972Z,42.96
2023-12-04T06:14:18.940Z,42.81
2023-12-04T06:16:46.051Z,42.13
2023-12-04T06:19:13.532Z,44.77
2023-12-04T06:21:41.190Z,44.86
2023-12-04T06:24:09.869Z,42.62
2023-12-04T06:26:42.315Z,42.12
2023-12-04T06:29:09.366Z,44.01
2023-12-04T06:31:36.762Z,46.59
2023-12-04T06:34:03.858Z,48.29
2023-12-04T06:36:36.483Z,46.73
2023-12-04T06:39:05.598Z,44.86
2023-12-04T06:41:32.633Z,43.26
2023-12-04T06:43:59.759Z,45.26
2023-12-04T06:46:30.183Z,44.96
2023-12-04T06:49:00.801Z,44.41
2023-12-04T06:51:28.085Z,45.93
2023-12-04T06:53:54.843Z,47.73
2023-12-04T06:56:21.596Z,44.73
2023-12-04T06:58:48.505Z,43.55
2023-12-04T07:01:15.358Z,42.75
2023-12-04T07:03:42.274Z,41.93
2023-12-04T07:06:09.410Z,41.97
2023-12-04T07:08:36.171Z,43.28
2023-12-04T07:11:03.100Z,44.68
2023-12-04T07:13:29.807Z,42.60
2023-12-04T07:15:56.596Z,42.38
2023-12-04T07:18:23.432Z,42.15
2023-12-04T07:20:50.431Z,42.35
2023-12-04T07:23:17.227Z,42.44
2023-12-04T07:25:43.982Z,42.95
2023-12-04T07:28:10.854Z,42.05
2023-12-04T07:30:37.706Z,43.73
2023-12-04T07:33:05.883Z,42.32
2023-12-04T07:35:35.050Z,41.62
2023-12-04T07:38:01.815Z,40.69
2023-12-04T07:40:28.581Z,42.43
2023-12-04T07:42:55.386Z,42.95
2023-12-04T07:45:22.614Z,42.75
2023-12-04T07:47:49.565Z,43.51
2023-12-04T07:50:16.359Z,41.95
2023-12-04T07:52:43.132Z,43.17
2023-12-04T07:55:10.003Z,42.21
2023-12-04T07:57:36.878Z,42.33
2023-12-04T08:00:04.202Z,42.50
2023-12-04T08:02:32.056Z,42.94
2023-12-04T08:05:00.124Z,41.05
2023-12-04T08:07:26.988Z,41.27
2023-12-04T08:09:55.183Z,41.38
2023-12-04T08:12:22.060Z,41.67
2023-12-04T08:14:48.968Z,40.97
2023-12-04T08:17:15.810Z,41.56
2023-12-04T08:19:43.162Z,41.43
2023-12-04T08:22:10.194Z,41.94
2023-12-04T08:24:37.137Z,41.01
2023-12-04T08:27:04.126Z,42.54
2023-12-04T08:29:30.924Z,41.78
2023-12-04T08:31:57.801Z,42.64
2023-12-04T08:34:24.630Z,44.03
2023-12-04T08:36:51.513Z,44.36
2023-12-04T08:39:18.278Z,41.40
2023-12-04T08:41:55.081Z,41.92
2023-12-04T08:44:28.427Z,42.31
2023-12-04T08:46:58.968Z,42.46
2023-12-04T08:49:33.162Z,41.96
2023-12-04T08:52:06.977Z,41.79
2023-12-04T08:54:34.438Z,42.90
2023-12-04T08:57:02.480Z,40.87
2023-12-04T08:59:30.145Z,41.31
2023-12-04T09:01:57.093Z,42.12
2023-12-04T09:04:24.171Z,42.77
2023-12-04T09:09:20.876Z,42.03
2023-12-04T09:11:48.812Z,43.00
2023-12-04T09:14:15.890Z,41.74
2023-12-04T09:16:43.289Z,41.97
2023-12-04T09:19:10.285Z,44.42
2023-12-04T09:21:37.176Z,43.61
2023-12-04T09:24:04.300Z,43.51
2023-12-04T09:26:31.140Z,44.54
2023-12-04T09:28:58.876Z,43.75
2023-12-04T09:31:25.747Z,45.15
2023-12-04T09:33:53.297Z,44.52
2023-12-04T09:36:20.250Z,42.09
2023-12-04T09:38:47.987Z,40.60
2023-12-04T09:41:17.033Z,41.68
2023-12-04T09:43:46.118Z,40.89
2023-12-04T09:46:13.540Z,42.34
2023-12-04T09:48:44.423Z,43.72
2023-12-04T09:51:12.306Z,43.87
2023-12-04T09:53:40.853Z,43.31
2023-12-04T09:56:10.367Z,41.76
2023-12-04T09:58:41.367Z,41.71
2023-12-04T10:01:08.693Z,42.29
2023-12-04T10:03:36.894Z,42.25
2023-12-04T10:06:05.511Z,43.09
2023-12-04T10:08:32.420Z,41.87
2023-12-04T10:11:00.128Z,41.38
2023-12-04T10:13:56.135Z,41.50
2023-12-04T10:16:15.327Z,42.80
2023-12-04T10:18:42.475Z,40.38
2023-12-04T10:21:13.719Z,41.26
2023-12-04T10:23:45.867Z,42.28
2023-12-04T10:26:17.119Z,42.48
2023-12-04T10:29:01.338Z,41.08
2023-12-04T10:31:32.682Z,41.69
2023-12-04T10:33:59.514Z,43.57
2023-12-04T10:36:26.532Z,43.61
2023-12-04T10:39:01.252Z,44.43
2023-12-04T10:41:28.719Z,44.05
2023-12-04T10:44:01.426Z,43.10
2023-12-04T10:46:37.320Z,45.52
2023-12-04T10:49:06.798Z,46.74
2023-12-04T10:51:35.545Z,48.73
2023-12-04T10:54:02.964Z,44.46
2023-12-04T10:56:40.807Z,43.27
2023-12-04T10:59:13.492Z,45.44
2023-12-04T11:01:43.895Z,46.58
2023-12-04T11:04:18.555Z,47.02
2023-12-04T11:06:49.884Z,48.67
2023-12-04T11:09:19.912Z,46.47
2023-12-04T11:11:52.361Z,45.62
2023-12-04T11:14:23.826Z,46.04
2023-12-04T11:16:55.646Z,43.73
2023-12-04T11:19:50.819Z,45.06
2023-12-04T11:22:21.302Z,43.94
2023-12-04T11:24:49.893Z,44.23
2023-12-04T11:27:19.264Z,43.41
2023-12-04T11:29:49.901Z,43.48
2023-12-04T11:32:20.704Z,44.22
2023-12-04T11:35:00.507Z,44.03
2023-12-04T11:37:27.734Z,43.30
2023-12-04T11:39:55.412Z,44.25
2023-12-04T11:42:25.137Z,44.08
2023-12-04T11:44:59.966Z,43.01
2023-12-04T11:47:29.469Z,43.28
2023-12-04T11:49:56.400Z,43.70
2023-12-04T11:52:34.691Z,46.87
2023-12-04T11:55:07.117Z,43.04
2023-12-04T11:57:42.027Z,42.29
2023-12-04T12:00:24.169Z,42.45
2023-12-04T12:03:15.650Z,42.95
2023-12-04T12:05:42.263Z,43.22
2023-12-04T12:08:10.105Z,42.33
2023-12-04T12:10:38.777Z,42.55
2023-12-04T12:13:05.912Z,43.53
2023-12-04T12:15:34.674Z,43.47
2023-12-04T12:18:01.669Z,42.65
2023-12-04T12:20:28.665Z,42.79
2023-12-04T12:22:55.749Z,44.48
2023-12-04T12:25:24.000Z,44.03
2023-12-04T12:27:52.084Z,48.49
2023-12-04T12:30:18.913Z,44.84
2023-12-04T12:32:45.775Z,44.69
2023-12-04T12:35:12.884Z,45.88
2023-12-04T12:37:40.563Z,47.53
2023-12-04T12:40:11.147Z,46.53
2023-12-04T12:42:45.293Z,44.48
2023-12-04T12:45:13.552Z,48.76
2023-12-04T12:47:44.853Z,45.81
2023-12-04T12:50:15.061Z,45.33
2023-12-04T12:52:44.581Z,47.73
2023-12-04T12:55:11.756Z,45.42
2023-12-04T12:57:39.014Z,45.40
2023-12-04T13:00:08.177Z,44.76
2023-12-04T13:02:37.750Z,45.50
2023-12-04T13:05:06.025Z,46.34
2023-12-04T13:07:33.343Z,44.92
2023-12-04T13:10:00.243Z,45.88
2023-12-04T13:12:27.110Z,47.55
2023-12-04T13:14:54.251Z,46.90
2023-12-04T13:17:21.442Z,45.30
2023-12-04T13:19:48.682Z,45.37
2023-12-04T13:22:16.055Z,46.58
2023-12-04T13:24:42.928Z,45.33
2023-12-04T13:27:10.426Z,46.41
2023-12-04T13:29:37.218Z,45.38
2023-12-04T13:32:05.496Z,45.49
2023-12-04T13:34:34.731Z,45.56
2023-12-04T13:37:01.584Z,44.84
2023-12-04T13:39:37.655Z,45.98
2023-12-04T13:42:23.675Z,46.53
2023-12-04T13:44:52.753Z,44.22
2023-12-04T13:47:19.538Z,45.08
2023-12-04T13:49:48.000Z,45.22
2023-12-04T13:52:14.955Z,45.18
2023-12-04T13:54:48.457Z,46.33
2023-12-04T13:57:22.341Z,47.63
2023-12-04T13:59:49.406Z,47.54
2023-12-04T14:02:16.958Z,45.82
2023-12-04T14:04:44.608Z,45.76
2023-12-04T14:07:13.799Z,46.53
2023-12-04T14:09:41.610Z,49.50
2023-12-04T14:12:09.573Z,46.54
2023-12-04T14:14:36.923Z,45.52
2023-12-04T14:17:05.697Z,45.77
2023-12-04T14:19:33.356Z,45.42
2023-12-04T14:22:00.744Z,49.30
2023-12-04T14:24:27.603Z,46.47
2023-12-04T14:26:57.381Z,51.35
2023-12-04T14:29:24.571Z,50.11
2023-12-04T14:31:51.535Z,48.96
2023-12-04T14:34:18.499Z,46.15
2023-12-04T14:36:45.309Z,46.67
2023-12-04T14:39:13.579Z,46.85
2023-12-04T14:41:40.538Z,47.65
2023-12-04T14:44:07.344Z,49.20
2023-12-04T14:46:34.258Z,47.43
2023-12-04T14:49:01.048Z,47.22
2023-12-04T14:51:28.613Z,46.74
2023-12-04T14:54:14.247Z,46.27
2023-12-04T14:56:44.686Z,47.03
2023-12-04T14:59:30.134Z,45.52
2023-12-04T15:02:15.678Z,44.57
2023-12-04T15:05:01.586Z,45.15
2023-12-04T15:07:47.197Z,47.28
2023-12-04T15:10:49.194Z,46.76
2023-12-04T15:13:34.789Z,48.18
2023-12-04T15:16:01.562Z,50.01
2023-12-04T15:18:39.438Z,48.57
2023-12-04T15:21:07.909Z,47.02
2023-12-04T15:23:34.708Z,46.03
2023-12-04T15:26:02.764Z,46.09
2023-12-04T15:28:29.747Z,45.47
2023-12-04T15:30:57.270Z,46.96
2023-12-04T15:33:27.338Z,44.78
2023-12-04T15:35:54.221Z,44.34
2023-12-04T15:38:21.760Z,46.99
2023-12-04T15:40:48.970Z,47.44
2023-12-04T15:43:16.305Z,43.93
2023-12-04T15:45:44.090Z,45.42
2023-12-04T15:48:12.505Z,44.41
2023-12-04T15:50:39.540Z,44.70
2023-12-04T15:53:06.401Z,47.38
2023-12-04T15:55:33.320Z,46.01
2023-12-04T15:58:00.227Z,43.91
2023-12-04T16:00:28.404Z,45.09
2023-12-04T16:02:55.805Z,46.07
2023-12-04T16:05:25.253Z,46.87
2023-12-04T16:07:52.425Z,48.23
2023-12-04T16:10:19.343Z,46.68
2023-12-04T16:12:46.496Z,46.63
2023-12-04T16:15:14.113Z,46.89
2023-12-04T16:17:41.151Z,44.64
2023-12-04T16:20:12.536Z,45.00
2023-12-04T16:22:44.471Z,45.76
2023-12-04T16:25:19.539Z,49.85
2023-12-04T16:27:46.970Z,49.00
2023-12-04T16:30:14.651Z,47.38
2023-12-04T16:32:41.758Z,45.93
2023-12-04T16:35:10.208Z,48.72
2023-12-04T16:37:38.166Z,49.97
2023-12-04T16:40:05.818Z,47.97
2023-12-04T16:42:33.481Z,45.96
2023-12-04T16:45:00.467Z,45.56
2023-12-04T16:47:27.419Z,45.18
2023-12-04T16:49:54.650Z,44.03
2023-12-04T16:52:21.685Z,44.91
2023-12-04T16:54:52.364Z,44.56
2023-12-04T16:57:19.458Z,45.80
2023-12-04T16:59:46.713Z,46.65
2023-12-04T17:02:13.664Z,45.22
2023-12-04T17:04:40.807Z,45.21
2023-12-04T17:07:07.730Z,44.23
2023-12-04T17:09:35.279Z,44.29
2023-12-04T17:12:02.387Z,45.93
2023-12-04T17:14:29.340Z,45.67
2023-12-04T17:16:56.259Z,44.64
2023-12-04T17:19:23.150Z,44.99
2023-12-04T17:21:49.958Z,44.20
2023-12-04T17:24:16.841Z,43.44
2023-12-04T17:26:43.597Z,44.21
2023-12-04T17:29:10.454Z,45.69
2023-12-04T17:31:40.023Z,47.15
2023-12-04T17:34:06.944Z,45.70
2023-12-04T17:36:33.964Z,45.09
2023-12-04T17:39:00.855Z,46.67
2023-12-04T17:41:27.671Z,45.85
2023-12-04T17:43:54.512Z,44.20
2023-12-04T17:46:21.400Z,44.69
2023-12-04T17:48:48.973Z,45.63
2023-12-04T17:51:19.097Z,47.61
2023-12-04T17:53:45.933Z,46.10
2023-12-04T17:56:12.679Z,45.89
2023-12-04T17:58:39.502Z,46.10
2023-12-04T18:01:07.090Z,44.39
2023-12-04T18:03:36.646Z,46.27
2023-12-04T18:06:05.434Z,45.89
2023-12-04T18:08:34.848Z,45.07
2023-12-04T18:11:01.875Z,45.33
2023-12-04T18:13:28.864Z,44.82
2023-12-04T18:15:56.110Z,45.08
2023-12-04T18:18:24.568Z,44.30
2023-12-04T18:20:52.776Z,43.77
2023-12-04T18:23:19.808Z,45.32
2023-12-04T18:25:48.427Z,45.16
2023-12-04T18:28:15.583Z,44.35
2023-12-04T18:30:43.455Z,45.00
2023-12-04T18:33:10.850Z,44.58
2023-12-04T18:35:37.895Z,46.39
2023-12-04T18:38:18.702Z,45.71
2023-12-04T18:40:45.894Z,45.38
2023-12-04T18:43:13.462Z,45.37
2023-12-04T18:45:40.564Z,46.91
2023-12-04T18:48:09.721Z,45.97
2023-12-04T18:50:40.676Z,44.69
2023-12-04T18:53:10.306Z,44.51
2023-12-04T18:55:40.526Z,45.45
2023-12-04T18:58:10.709Z,46.39
2023-12-04T19:00:40.253Z,45.56
2023-12-04T19:03:07.221Z,44.34
2023-12-04T19:05:34.472Z,44.06
2023-12-04T19:08:03.002Z,46.42
2023-12-04T19:10:29.852Z,44.62
2023-12-04T19:12:57.169Z,44.37
2023-12-04T19:15:25.636Z,46.30
2023-12-04T19:17:53.571Z,46.30
2023-12-04T19:20:20.452Z,46.42
2023-12-04T19:22:47.195Z,44.51
2023-12-04T19:25:14.878Z,45.79
2023-12-04T19:27:41.826Z,49.01
2023-12-04T19:30:09.163Z,50.96
2023-12-04T19:32:36.312Z,47.82
2023-12-04T19:35:03.599Z,46.39
2023-12-04T19:37:30.471Z,46.27
2023-12-04T19:39:57.226Z,46.83
2023-12-04T19:42:27.223Z,45.07
2023-12-04T19:44:57.092Z,44.84
2023-12-04T19:47:24.199Z,45.35
2023-12-04T19:49:51.070Z,45.13
2023-12-04T19:52:17.956Z,47.56
2023-12-04T19:54:45.162Z,47.54
2023-12-04T19:57:12.184Z,44.96
2023-12-04T19:59:38.975Z,45.23
2023-12-04T20:02:06.404Z,44.85
2023-12-04T20:04:34.781Z,46.28
2023-12-04T20:07:01.856Z,46.91
2023-12-04T20:09:29.231Z,47.92
2023-12-04T20:11:56.116Z,46.20
2023-12-04T20:14:23.988Z,50.47
2023-12-04T20:16:52.343Z,49.19
2023-12-04T20:19:20.612Z,51.62
2023-12-04T20:21:47.753Z,48.96
2023-12-04T20:24:16.053Z,46.91
2023-12-04T20:26:43.581Z,47.09
2023-12-04T20:29:10.726Z,45.86
2023-12-04T20:31:37.654Z,45.64
2023-12-04T20:34:05.079Z,46.76
2023-12-04T20:36:31.994Z,47.30
2023-12-04T20:38:59.094Z,47.93
2023-12-04T20:41:26.041Z,48.28
2023-12-04T20:43:52.913Z,48.50
2023-12-04T20:46:19.876Z,49.37
2023-12-04T20:48:47.024Z,48.46
2023-12-04T20:51:14.649Z,48.35
2023-12-04T20:53:41.636Z,47.00
2023-12-04T20:56:09.134Z,46.83
2023-12-04T20:58:36.114Z,47.00
2023-12-04T21:01:04.194Z,47.12
2023-12-04T21:03:31.312Z,48.56
2023-12-04T21:05:58.260Z,49.43
2023-12-04T21:08:25.256Z,47.50
2023-12-04T21:10:52.192Z,46.89
2023-12-04T21:13:19.005Z,46.67
2023-12-04T21:15:48.050Z,45.92
2023-12-04T21:18:16.120Z,46.63
2023-12-04T21:20:44.705Z,46.99
2023-12-04T21:23:11.726Z,46.71
2023-12-04T21:25:38.896Z,48.82
2023-12-04T21:28:07.341Z,53.72
2023-12-04T21:30:34.689Z,48.10
2023-12-04T21:33:01.807Z,47.10
2023-12-04T21:35:28.650Z,46.17
2023-12-04T21:37:56.662Z,47.33
2023-12-04T21:40:24.476Z,47.72
2023-12-04T21:42:51.488Z,50.64
2023-12-04T21:45:21.231Z,50.07
2023-12-04T21:47:49.679Z,52.07
2023-12-04T21:50:16.791Z,50.85
2023-12-04T21:52:43.702Z,50.23
2023-12-04T21:55:13.139Z,51.85
2023-12-04T21:57:40.651Z,53.36
2023-12-04T22:00:11.867Z,53.06
2023-12-04T22:02:39.115Z,52.12
2023-12-04T22:05:06.577Z,52.47
2023-12-04T22:07:34.172Z,49.21
2023-12-04T22:10:01.074Z,48.55
2023-12-04T22:12:28.075Z,49.04
2023-12-04T22:14:55.101Z,47.92
2023-12-04T22:17:22.063Z,52.42
2023-12-04T22:19:49.023Z,50.61
2023-12-04T22:22:16.883Z,50.92
2023-12-04T22:24:43.825Z,50.96
2023-12-04T22:27:10.779Z,54.90
2023-12-04T22:29:37.853Z,51.75
2023-12-04T22:32:04.845Z,53.99
2023-12-04T22:34:32.482Z,50.60
2023-12-04T22:36:59.339Z,54.13
2023-12-04T22:39:26.205Z,51.93
2023-12-04T22:41:53.099Z,51.07
2023-12-04T22:44:19.898Z,49.32
2023-12-04T22:46:47.182Z,49.64
2023-12-04T22:49:14.137Z,48.38
2023-12-04T22:51:41.153Z,51.64
2023-12-04T22:54:07.995Z,51.54
2023-12-04T22:56:34.783Z,50.78
2023-12-04T22:59:01.711Z,49.83
2023-12-04T23:01:28.533Z,50.63
2023-12-04T23:03:56.249Z,52.96
2023-12-04T23:06:23.905Z,49.61
2023-12-04T23:08:50.782Z,49.28
2023-12-04T23:11:18.047Z,47.95
2023-12-04T23:13:45.077Z,47.40
2023-12-04T23:16:12.021Z,48.50
2023-12-04T23:18:39.027Z,50.96
2023-12-04T23:21:08.436Z,50.19
2023-12-04T23:23:36.950Z,48.82
2023-12-04T23:26:04.223Z,48.66
2023-12-04T23:28:31.136Z,48.14
2023-12-04T23:30:57.995Z,48.13
2023-12-04T23:33:25.700Z,48.55
2023-12-04T23:35:53.298Z,47.73
2023-12-04T23:38:20.424Z,47.31
2023-12-04T23:40:47.188Z,47.78
2023-12-04T23:43:14.042Z,47.49
2023-12-04T23:45:45.712Z,48.69
2023-12-04T23:48:20.385Z,47.36
2023-12-04T23:50:47.579Z,49.42
2023-12-04T23:53:14.386Z,48.49
2023-12-04T23:55:41.310Z,51.12
2023-12-04T23:58:08.269Z,49.65
